createdAt,value
2019-01-26T00:00:28.292Z,15.83
2019-01-26T00:02:58.817Z,17.60
2019-01-26T00:05:29.296Z,18.60
2019-01-26T00:07:59.810Z,16.83
2019-01-26T00:10:30.280Z,17.30
2019-01-26T00:13:00.783Z,17.93
2019-01-26T00:15:31.269Z,21.20
2019-01-26T00:18:01.796Z,15.77
2019-01-26T00:20:36.305Z,19.43
2019-01-26T00:23:04.482Z,20.03
2019-01-26T00:25:34.954Z,13.50
2019-01-26T00:28:05.477Z,17.13
2019-01-26T00:30:36.024Z,14.77
2019-01-26T00:33:06.585Z,13.33
2019-01-26T00:35:37.064Z,17.50
2019-01-26T00:38:07.696Z,15.57
2019-01-26T00:40:38.165Z,12.70
2019-01-26T00:43:08.674Z,17.67
2019-01-26T00:45:39.246Z,16.57
2019-01-26T00:48:09.749Z,15.33
2019-01-26T00:50:40.242Z,16.03
2019-01-26T00:53:10.711Z,12.97
2019-01-26T00:55:41.275Z,20.23
2019-01-26T00:58:11.742Z,15.27
2019-01-26T01:00:42.396Z,14.70
2019-01-26T01:03:13.002Z,20.00
2019-01-26T01:05:43.651Z,16.67
2019-01-26T01:08:14.119Z,18.93
2019-01-26T01:10:44.756Z,14.50
2019-01-26T01:13:15.226Z,12.40
2019-01-26T01:15:45.716Z,14.10
2019-01-26T01:18:16.373Z,10.70
2019-01-26T01:20:46.872Z,14.43
2019-01-26T01:23:17.358Z,14.87
2019-01-26T01:25:47.822Z,11.77
2019-01-26T01:28:18.329Z,13.70
2019-01-26T01:30:48.804Z,11.77
2019-01-26T01:33:19.297Z,11.27
2019-01-26T01:35:49.833Z,14.97
2019-01-26T01:38:20.338Z,10.27
2019-01-26T01:40:50.807Z,12.60
2019-01-26T01:43:21.457Z,10.53
2019-01-26T01:45:51.930Z,13.00
2019-01-26T01:48:22.432Z,14.50
2019-01-26T01:50:52.902Z,10.83
2019-01-26T01:53:23.465Z,8.53
2019-01-26T01:55:54.054Z,10.10
2019-01-26T01:58:37.150Z,11.87
2019-01-26T02:01:07.854Z,14.13
2019-01-26T02:03:38.352Z,12.27
2019-01-26T02:06:08.886Z,9.70
2019-01-26T02:08:39.356Z,10.97
2019-01-26T02:11:09.863Z,10.40
2019-01-26T02:13:40.367Z,10.17
2019-01-26T02:16:10.931Z,13.17
2019-01-26T02:18:41.453Z,12.97
2019-01-26T02:21:12.295Z,11.80
2019-01-26T02:23:42.801Z,18.03
2019-01-26T02:26:13.273Z,28.40
2019-01-26T02:28:43.781Z,31.63
2019-01-26T02:31:14.350Z,35.13
2019-01-26T02:33:44.835Z,37.03
2019-01-26T02:36:15.363Z,32.77
2019-01-26T02:38:45.832Z,39.53
2019-01-26T02:41:16.344Z,38.20
2019-01-26T02:43:46.847Z,39.87
2019-01-26T02:46:17.352Z,32.30
2019-01-26T02:48:47.851Z,37.37
2019-01-26T02:51:18.349Z,42.10
2019-01-26T02:53:48.856Z,42.50
2019-01-26T02:56:19.366Z,45.37
2019-01-26T02:58:49.884Z,44.60
2019-01-26T03:01:20.367Z,43.17
2019-01-26T03:03:50.882Z,42.97
2019-01-26T03:06:21.362Z,46.13
2019-01-26T03:08:51.871Z,41.37
2019-01-26T03:11:22.445Z,45.97
2019-01-26T03:13:52.910Z,39.80
2019-01-26T03:16:23.415Z,39.53
2019-01-26T03:18:53.950Z,37.20
2019-01-26T03:21:24.458Z,43.30
2019-01-26T03:23:54.970Z,35.87
2019-01-26T03:26:25.474Z,31.90
2019-01-26T03:28:55.954Z,33.63
2019-01-26T03:31:26.490Z,40.70
2019-01-26T03:33:56.954Z,32.90
2019-01-26T03:36:27.533Z,40.83
2019-01-26T03:38:58.033Z,38.33
2019-01-26T03:41:28.532Z,39.40
2019-01-26T03:43:59.003Z,37.57
2019-01-26T03:46:29.511Z,42.57
2019-01-26T03:49:00.060Z,33.63
2019-01-26T03:51:30.513Z,30.87
2019-01-26T03:54:01.006Z,44.63
2019-01-26T03:56:31.476Z,36.03
2019-01-26T03:59:01.989Z,43.47
2019-01-26T04:01:32.557Z,33.67
2019-01-26T04:04:03.173Z,38.40
2019-01-26T04:06:33.688Z,43.73
2019-01-26T04:09:07.070Z,44.23
2019-01-26T04:11:37.586Z,38.13
2019-01-26T04:14:08.121Z,43.23
2019-01-26T04:16:38.639Z,42.27
2019-01-26T04:19:09.110Z,45.50
2019-01-26T04:21:39.604Z,41.60
2019-01-26T04:24:10.106Z,37.90
2019-01-26T04:26:40.574Z,38.43
2019-01-26T04:29:11.495Z,41.40
2019-01-26T04:31:42.036Z,39.77
2019-01-26T04:34:12.549Z,36.13
2019-01-26T04:36:43.017Z,35.97
2019-01-26T04:39:13.533Z,31.60
2019-01-26T04:41:44.016Z,40.03
2019-01-26T04:44:14.524Z,38.77
2019-01-26T04:46:45.019Z,36.10
2019-01-26T04:49:15.482Z,38.90
2019-01-26T04:51:45.983Z,39.30
2019-01-26T04:54:16.530Z,44.63
2019-01-26T04:56:47.038Z,38.80
2019-01-26T04:59:17.541Z,39.30
2019-01-26T05:01:48.019Z,35.07
2019-01-26T05:04:18.527Z,42.00
2019-01-26T05:06:49.001Z,47.07
2019-01-26T05:09:19.676Z,35.03
2019-01-26T05:11:50.150Z,36.83
2019-01-26T05:14:20.648Z,34.60
2019-01-26T05:16:51.150Z,36.17
2019-01-26T05:19:21.707Z,52.87
2019-01-26T05:21:52.219Z,39.17
2019-01-26T05:24:22.696Z,44.30
2019-01-26T05:26:53.206Z,43.80
2019-01-26T05:29:23.689Z,40.10
2019-01-26T05:31:54.180Z,45.40
2019-01-26T05:34:24.700Z,48.73
2019-01-26T05:36:55.172Z,47.80
2019-01-26T05:39:25.676Z,42.50
2019-01-26T05:41:56.219Z,51.33
2019-01-26T05:44:26.727Z,62.50
2019-01-26T05:46:57.203Z,49.53
2019-01-26T05:49:27.709Z,51.67
2019-01-26T05:51:58.186Z,50.90
2019-01-26T05:54:28.683Z,52.80
2019-01-26T05:56:59.160Z,47.30
2019-01-26T05:59:29.659Z,57.73
2019-01-26T06:02:00.182Z,50.87
2019-01-26T06:04:30.679Z,53.93
2019-01-26T06:07:01.155Z,60.33
2019-01-26T06:09:31.671Z,50.20
2019-01-26T06:12:02.205Z,52.70
2019-01-26T06:14:32.711Z,53.07
2019-01-26T06:17:03.222Z,48.50
2019-01-26T06:19:33.734Z,54.53
2019-01-26T06:22:04.450Z,46.97
2019-01-26T06:24:34.929Z,54.53
2019-01-26T06:27:05.451Z,50.47
2019-01-26T06:29:35.923Z,59.17
2019-01-26T06:32:06.586Z,52.07
2019-01-26T06:34:37.060Z,56.87
2019-01-26T06:37:07.583Z,58.37
2019-01-26T06:39:38.045Z,55.03
2019-01-26T06:42:08.542Z,49.63
2019-01-26T06:44:39.117Z,53.30
2019-01-26T06:47:09.633Z,52.43
2019-01-26T06:49:40.109Z,53.50
2019-01-26T06:52:10.675Z,48.73
2019-01-26T06:54:41.218Z,52.23
2019-01-26T06:57:11.745Z,44.23
2019-01-26T06:59:42.228Z,49.70
2019-01-26T07:02:12.731Z,51.37
2019-01-26T07:04:44.854Z,58.83
2019-01-26T07:07:15.434Z,45.27
2019-01-26T07:09:45.901Z,47.63
2019-01-26T07:12:16.418Z,49.50
2019-01-26T07:14:46.921Z,51.00
2019-01-26T07:17:17.464Z,50.50
2019-01-26T07:19:48.889Z,50.70
2019-01-26T07:22:19.440Z,48.10
2019-01-26T07:24:49.958Z,43.90
2019-01-26T07:27:20.445Z,46.07
2019-01-26T07:29:51.131Z,62.63
2019-01-26T07:32:21.642Z,53.63
2019-01-26T07:34:52.108Z,53.23
2019-01-26T07:37:22.745Z,49.37
2019-01-26T07:39:53.233Z,56.67
2019-01-26T07:42:25.345Z,55.07
2019-01-26T07:44:55.821Z,53.37
2019-01-26T07:47:27.204Z,48.30
2019-01-26T07:49:57.682Z,59.10
2019-01-26T07:52:28.214Z,53.40
2019-01-26T07:54:58.701Z,50.50
2019-01-26T07:57:29.268Z,44.93
2019-01-26T07:59:59.750Z,59.30
2019-01-26T08:02:30.245Z,47.03
2019-01-26T08:05:00.825Z,49.80
2019-01-26T08:07:31.312Z,55.30
2019-01-26T08:10:01.790Z,63.07
2019-01-26T08:12:32.270Z,82.40
2019-01-26T08:15:02.778Z,56.90
2019-01-26T08:17:33.348Z,54.47
2019-01-26T08:20:05.280Z,55.50
2019-01-26T08:22:35.747Z,55.70
2019-01-26T08:25:08.674Z,53.00
2019-01-26T08:27:39.164Z,51.07
2019-01-26T08:30:19.602Z,47.07
2019-01-26T08:32:50.884Z,56.97
2019-01-26T08:35:21.557Z,48.90
2019-01-26T08:37:52.251Z,54.03
2019-01-26T08:40:23.459Z,49.27
2019-01-26T08:42:53.936Z,46.90
2019-01-26T08:45:24.452Z,42.90
2019-01-26T08:47:55.084Z,48.77
2019-01-26T08:50:26.057Z,53.93
2019-01-26T08:52:56.631Z,50.87
2019-01-26T08:55:27.134Z,52.23
2019-01-26T08:57:57.612Z,51.10
2019-01-26T09:00:29.663Z,42.70
2019-01-26T09:02:59.947Z,58.63
2019-01-26T09:05:32.075Z,52.43
2019-01-26T09:08:02.632Z,52.57
2019-01-26T09:10:33.199Z,43.00
2019-01-26T09:13:03.695Z,45.43
2019-01-26T09:15:35.349Z,49.40
2019-01-26T09:18:07.550Z,39.97
2019-01-26T09:20:38.046Z,50.60
2019-01-26T09:23:08.653Z,43.83
2019-01-26T09:25:39.158Z,47.50
2019-01-26T09:28:10.475Z,46.83
2019-01-26T09:30:41.387Z,51.50
2019-01-26T09:33:12.018Z,47.73
2019-01-26T09:35:42.534Z,46.00
2019-01-26T09:38:13.016Z,50.73
2019-01-26T09:40:45.964Z,48.60
2019-01-26T09:43:16.573Z,50.87
2019-01-26T09:45:47.182Z,52.23
2019-01-26T09:48:17.768Z,46.90
2019-01-26T09:50:48.227Z,54.27
2019-01-26T09:53:18.766Z,46.53
2019-01-26T09:55:49.247Z,46.87
2019-01-26T09:58:20.049Z,45.33
2019-01-26T10:00:50.597Z,52.87
2019-01-26T10:03:21.090Z,47.70
2019-01-26T10:05:51.556Z,49.67
2019-01-26T10:08:22.179Z,55.40
2019-01-26T10:10:52.726Z,50.20
2019-01-26T10:13:23.239Z,43.23
2019-01-26T10:15:54.950Z,48.33
2019-01-26T10:18:25.518Z,45.90
2019-01-26T10:20:56.117Z,52.30
2019-01-26T10:23:26.591Z,42.40
2019-01-26T10:25:57.103Z,55.80
2019-01-26T10:28:28.615Z,53.30
2019-01-26T10:30:59.490Z,57.40
2019-01-26T10:33:29.954Z,44.07
2019-01-26T10:36:01.859Z,55.97
2019-01-26T10:38:34.105Z,54.23
2019-01-26T10:41:04.369Z,47.13
2019-01-26T10:43:51.580Z,49.40
2019-01-26T10:46:22.058Z,45.77
2019-01-26T10:48:52.561Z,42.47
2019-01-26T10:51:23.029Z,46.97
2019-01-26T10:53:53.531Z,55.73
2019-01-26T10:56:24.028Z,47.67
2019-01-26T10:58:54.517Z,51.37
2019-01-26T11:01:25.052Z,47.77
2019-01-26T11:03:55.554Z,57.13
2019-01-26T11:06:26.101Z,43.67
2019-01-26T11:08:56.602Z,43.73
2019-01-26T11:11:27.141Z,43.60
2019-01-26T11:13:57.647Z,55.70
2019-01-26T11:16:28.123Z,50.47
2019-01-26T11:18:58.642Z,40.90
2019-01-26T11:21:29.128Z,55.87
2019-01-26T11:23:59.631Z,65.10
2019-01-26T11:26:30.276Z,56.70
2019-01-26T11:29:00.740Z,44.20
2019-01-26T11:31:31.788Z,41.27
2019-01-26T11:34:02.264Z,41.60
2019-01-26T11:36:32.799Z,45.93
2019-01-26T11:39:05.529Z,44.83
2019-01-26T11:41:36.027Z,47.80
2019-01-26T11:44:06.670Z,45.53
2019-01-26T11:46:37.221Z,42.83
2019-01-26T11:49:15.080Z,42.30
2019-01-26T11:51:44.616Z,34.93
2019-01-26T11:54:15.102Z,44.97
2019-01-26T11:56:47.223Z,53.23
2019-01-26T11:59:18.582Z,38.93
2019-01-26T12:01:50.689Z,40.83
2019-01-26T12:04:22.849Z,35.90
2019-01-26T12:06:54.973Z,43.33
2019-01-26T12:09:25.545Z,36.30
2019-01-26T12:11:56.031Z,39.37
2019-01-26T12:14:26.551Z,42.00
2019-01-26T12:16:57.795Z,40.00
2019-01-26T12:19:29.953Z,41.87
2019-01-26T12:22:00.467Z,86.23
2019-01-26T12:24:31.226Z,67.77
2019-01-26T12:27:01.722Z,43.07
2019-01-26T12:29:32.198Z,40.53
2019-01-26T12:32:02.717Z,42.27
2019-01-26T12:34:33.271Z,46.30
2019-01-26T12:37:03.866Z,47.73
2019-01-26T12:39:34.483Z,41.03
2019-01-26T12:42:05.018Z,44.90
2019-01-26T12:44:35.535Z,53.30
2019-01-26T12:47:06.551Z,52.13
2019-01-26T12:49:37.090Z,48.57
2019-01-26T12:52:07.614Z,46.30
2019-01-26T12:54:38.715Z,42.20
2019-01-26T12:57:09.759Z,43.20
2019-01-26T12:59:40.247Z,42.50
2019-01-26T13:02:10.781Z,48.93
2019-01-26T13:04:41.370Z,41.87
2019-01-26T13:07:11.839Z,48.13
2019-01-26T13:09:42.342Z,51.67
2019-01-26T13:12:12.817Z,56.43
2019-01-26T13:14:43.328Z,49.50
2019-01-26T13:17:13.445Z,43.87
2019-01-26T13:19:43.947Z,38.07
2019-01-26T13:22:14.586Z,44.10
2019-01-26T13:24:45.059Z,40.83
2019-01-26T13:27:15.643Z,41.93
2019-01-26T13:29:46.154Z,42.03
2019-01-26T13:32:16.651Z,42.03
2019-01-26T13:34:47.156Z,50.70
2019-01-26T13:37:17.647Z,43.67
2019-01-26T13:39:48.130Z,43.43
2019-01-26T13:42:18.630Z,50.97
2019-01-26T13:44:49.274Z,35.90
2019-01-26T13:47:19.862Z,43.57
2019-01-26T13:49:50.336Z,41.97
2019-01-26T13:52:20.829Z,41.90
2019-01-26T13:54:51.316Z,41.33
2019-01-26T13:57:21.806Z,64.53
2019-01-26T13:59:52.339Z,51.43
2019-01-26T14:02:22.840Z,46.77
2019-01-26T14:04:53.318Z,41.10
2019-01-26T14:07:23.894Z,42.47
2019-01-26T14:09:54.364Z,49.23
2019-01-26T14:12:24.889Z,43.47
2019-01-26T14:14:55.367Z,44.40
2019-01-26T14:17:25.874Z,42.20
2019-01-26T14:19:56.356Z,39.80
2019-01-26T14:22:26.877Z,40.47
2019-01-26T14:24:57.340Z,39.30
2019-01-26T14:27:27.841Z,43.07
2019-01-26T14:29:58.395Z,39.33
2019-01-26T14:32:28.853Z,49.10
2019-01-26T14:34:59.358Z,61.83
2019-01-26T14:37:29.923Z,114.03
2019-01-26T14:40:00.432Z,44.43
2019-01-26T14:42:30.913Z,40.50
2019-01-26T14:45:01.399Z,43.50
2019-01-26T14:47:31.897Z,44.67
2019-01-26T14:50:02.375Z,42.60
2019-01-26T14:52:34.558Z,44.03
2019-01-26T14:55:08.872Z,43.57
2019-01-26T14:57:39.478Z,103.60
2019-01-26T15:00:26.048Z,84.33
2019-01-26T15:02:56.764Z,39.93
2019-01-26T15:05:27.876Z,42.30
2019-01-26T15:07:59.780Z,41.03
2019-01-26T15:10:30.390Z,38.93
2019-01-26T15:13:00.957Z,38.47
2019-01-26T15:15:31.551Z,33.53
2019-01-26T15:18:03.757Z,40.37
2019-01-26T15:20:40.192Z,62.40
2019-01-26T15:23:12.301Z,65.07
2019-01-26T15:25:43.065Z,93.63
2019-01-26T15:28:13.618Z,45.63
2019-01-26T15:30:44.195Z,36.67
2019-01-26T15:33:14.936Z,33.90
2019-01-26T15:35:45.439Z,40.40
2019-01-26T15:38:15.922Z,41.10
2019-01-26T15:40:46.529Z,47.10
2019-01-26T15:43:16.993Z,45.60
2019-01-26T15:45:47.492Z,45.90
2019-01-26T15:48:18.038Z,55.77
2019-01-26T15:50:52.608Z,48.63
2019-01-26T15:53:23.091Z,50.20
2019-01-26T15:55:53.589Z,37.40
2019-01-26T15:58:24.146Z,40.87
2019-01-26T16:00:54.660Z,37.80
2019-01-26T16:03:25.210Z,39.53
2019-01-26T16:05:55.707Z,30.27
2019-01-26T16:08:26.180Z,34.27
2019-01-26T16:10:56.703Z,37.70
2019-01-26T16:13:27.259Z,36.43
2019-01-26T16:15:57.800Z,34.27
2019-01-26T16:18:28.306Z,30.50
2019-01-26T16:20:58.795Z,36.20
2019-01-26T16:23:29.265Z,29.90
2019-01-26T16:25:59.790Z,29.40
2019-01-26T16:28:30.485Z,29.43
2019-01-26T16:31:01.005Z,34.80
2019-01-26T16:33:31.604Z,31.23
2019-01-26T16:36:02.683Z,35.43
2019-01-26T16:38:33.227Z,31.03
2019-01-26T16:41:03.824Z,32.40
2019-01-26T16:43:34.631Z,35.50
2019-01-26T16:46:18.585Z,25.10
2019-01-26T16:48:55.133Z,27.67
2019-01-26T16:51:25.602Z,20.50
2019-01-26T16:53:56.103Z,23.80
2019-01-26T16:56:26.674Z,23.47
2019-01-26T16:58:57.160Z,21.20
2019-01-26T17:01:27.669Z,24.70
2019-01-26T17:03:58.136Z,20.53
2019-01-26T17:06:28.731Z,22.80
2019-01-26T17:08:59.231Z,23.97
2019-01-26T17:11:29.759Z,18.67
2019-01-26T17:14:00.211Z,20.93
2019-01-26T17:16:31.876Z,19.90
2019-01-26T17:19:02.378Z,22.50
2019-01-26T17:21:32.872Z,25.17
2019-01-26T17:24:03.372Z,21.80
2019-01-26T17:26:33.869Z,21.67
2019-01-26T17:29:04.340Z,27.53
2019-01-26T17:31:34.930Z,32.30
2019-01-26T17:34:05.542Z,24.33
2019-01-26T17:36:36.065Z,28.37
2019-01-26T17:39:09.046Z,28.80
2019-01-26T17:41:39.614Z,34.03
2019-01-26T17:44:10.099Z,38.10
2019-01-26T17:46:40.612Z,34.87
2019-01-26T17:49:11.156Z,31.50
2019-01-26T17:51:41.670Z,38.63
2019-01-26T17:54:12.156Z,86.80
2019-01-26T17:56:42.650Z,73.30
2019-01-26T17:59:13.221Z,48.60
2019-01-26T18:01:43.721Z,43.80
2019-01-26T18:04:14.233Z,41.43
2019-01-26T18:06:44.735Z,34.33
2019-01-26T18:09:15.216Z,34.83
2019-01-26T18:11:46.742Z,37.00
2019-01-26T18:14:17.222Z,41.03
2019-01-26T18:16:47.758Z,37.47
2019-01-26T18:19:18.267Z,42.80
2019-01-26T18:21:48.760Z,45.20
2019-01-26T18:24:19.245Z,40.57
2019-01-26T18:26:50.796Z,43.60
2019-01-26T18:29:21.346Z,39.80
2019-01-26T18:31:51.855Z,44.00
2019-01-26T18:34:22.329Z,40.27
2019-01-26T18:36:52.906Z,43.37
2019-01-26T18:39:26.624Z,47.57
2019-01-26T18:41:57.791Z,51.57
2019-01-26T18:44:28.969Z,50.93
2019-01-26T18:46:59.624Z,45.80
2019-01-26T18:49:30.162Z,40.70
2019-01-26T18:52:00.612Z,40.20
2019-01-26T18:54:31.084Z,38.27
2019-01-26T18:57:01.660Z,49.80
2019-01-26T18:59:32.700Z,46.97
2019-01-26T19:02:03.216Z,41.77
2019-01-26T19:04:34.539Z,38.00
2019-01-26T19:07:05.279Z,38.87
2019-01-26T19:09:35.866Z,43.27
2019-01-26T19:12:06.450Z,44.50
2019-01-26T19:14:36.927Z,43.13
2019-01-26T19:17:07.522Z,42.00
2019-01-26T19:19:38.002Z,46.07
2019-01-26T19:22:08.510Z,38.70
2019-01-26T19:24:39.000Z,41.50
2019-01-26T19:27:10.442Z,41.97
2019-01-26T19:29:40.970Z,41.50
2019-01-26T19:32:11.440Z,43.17
2019-01-26T19:34:41.981Z,43.17
2019-01-26T19:37:12.451Z,51.20
2019-01-26T19:39:43.009Z,45.17
2019-01-26T19:42:13.514Z,46.27
2019-01-26T19:44:44.689Z,46.90
2019-01-26T19:47:15.200Z,41.27
2019-01-26T19:49:45.673Z,39.97
2019-01-26T19:52:16.219Z,54.00
2019-01-26T19:54:46.765Z,45.03
2019-01-26T19:57:17.278Z,54.97
2019-01-26T19:59:47.759Z,48.47
2019-01-26T20:02:18.273Z,50.83
2019-01-26T20:04:48.830Z,49.30
2019-01-26T20:07:19.419Z,47.03
2019-01-26T20:09:49.895Z,43.43
2019-01-26T20:12:20.475Z,41.17
2019-01-26T20:14:51.019Z,48.80
2019-01-26T20:17:21.535Z,50.10
2019-01-26T20:19:52.045Z,44.20
2019-01-26T20:22:22.514Z,46.00
2019-01-26T20:24:53.097Z,51.63
2019-01-26T20:27:23.621Z,46.93
2019-01-26T20:29:54.234Z,45.60
2019-01-26T20:32:24.820Z,48.57
2019-01-26T20:34:55.294Z,42.70
2019-01-26T20:37:25.824Z,42.90
2019-01-26T20:39:56.290Z,49.47
2019-01-26T20:42:26.804Z,59.00
2019-01-26T20:44:57.300Z,55.87
2019-01-26T20:47:27.785Z,50.60
2019-01-26T20:49:58.323Z,45.70
2019-01-26T20:52:29.068Z,46.20
2019-01-26T20:54:59.555Z,52.70
2019-01-26T20:57:30.062Z,57.73
2019-01-26T21:00:00.545Z,50.03
2019-01-26T21:02:31.121Z,52.07
2019-01-26T21:05:01.608Z,57.00
2019-01-26T21:07:32.115Z,54.60
2019-01-26T21:10:02.617Z,46.63
2019-01-26T21:12:33.123Z,45.03
2019-01-26T21:15:05.119Z,46.40
2019-01-26T21:17:35.720Z,60.83
2019-01-26T21:20:13.472Z,47.50
2019-01-26T21:22:44.065Z,51.53
2019-01-26T21:25:15.175Z,45.60
2019-01-26T21:27:46.531Z,56.53
2019-01-26T21:30:27.354Z,53.43
2019-01-26T21:32:59.287Z,47.43
2019-01-26T21:35:29.763Z,48.60
2019-01-26T21:38:00.300Z,52.23
2019-01-26T21:40:31.762Z,54.50
2019-01-26T21:43:02.409Z,52.60
2019-01-26T21:45:32.948Z,46.80
2019-01-26T21:48:03.452Z,57.23
2019-01-26T21:50:34.173Z,54.77
2019-01-26T21:53:04.704Z,56.70
2019-01-26T21:55:35.225Z,49.50
2019-01-26T21:58:06.140Z,62.23
2019-01-26T22:00:36.779Z,62.83
2019-01-26T22:03:07.326Z,59.90
2019-01-26T22:05:37.896Z,61.63
2019-01-26T22:08:08.471Z,64.40
2019-01-26T22:10:39.040Z,65.00
2019-01-26T22:13:09.616Z,64.00
2019-01-26T22:15:40.091Z,70.13
2019-01-26T22:18:10.662Z,64.00
2019-01-26T22:20:41.140Z,57.83
2019-01-26T22:23:11.645Z,58.03
2019-01-26T22:25:42.162Z,62.13
2019-01-26T22:28:12.640Z,62.40
2019-01-26T22:30:43.227Z,65.80
2019-01-26T22:33:13.735Z,66.87
2019-01-26T22:35:44.253Z,65.77
2019-01-26T22:38:16.254Z,62.40
2019-01-26T22:40:46.766Z,60.90
2019-01-26T22:43:17.239Z,61.27
2019-01-26T22:45:47.745Z,65.53
2019-01-26T22:48:18.357Z,64.33
2019-01-26T22:50:48.857Z,58.53
2019-01-26T22:53:19.336Z,59.13
2019-01-26T22:55:49.833Z,61.40
2019-01-26T22:58:20.371Z,64.93
2019-01-26T23:00:59.822Z,63.43
2019-01-26T23:03:46.927Z,66.63
2019-01-26T23:06:49.145Z,76.60
2019-01-26T23:09:30.243Z,58.43
2019-01-26T23:12:14.368Z,64.80
2019-01-26T23:15:09.015Z,63.23
2019-01-26T23:18:02.329Z,67.67
2019-01-26T23:20:49.436Z,69.23
2019-01-26T23:24:05.698Z,67.33
2019-01-26T23:27:09.484Z,61.87
2019-01-26T23:29:52.932Z,61.77
2019-01-26T23:32:23.412Z,59.50
2019-01-26T23:34:53.925Z,57.87
2019-01-26T23:37:24.468Z,61.90
2019-01-26T23:39:54.972Z,65.43
2019-01-26T23:42:25.460Z,65.40
2019-01-26T23:44:55.961Z,65.20
2019-01-26T23:47:27.670Z,71.07
2019-01-26T23:49:58.164Z,67.93
2019-01-26T23:52:28.826Z,68.97
2019-01-26T23:54:59.301Z,60.73
2019-01-26T23:57:29.804Z,67.37
